PWSweather.com
Personal Weather Stations
Station Observations
WISCHPK61
Green Bay Schmitt Park, Green Bay, WI 54311

Green Bay Schmitt ParkGreen Bay, WI 54311

Lat: 44.514277, Lon: -87.935067

Elevation: 735

Station Type: Acu Rite Pro Weather Center model 02032C

http://greenbayweathercam.com

High Low Average
Temperature 95.2°F35.1°C 64.2°F17.9°C 73.7°F23.2°C
Dew Point 94.9°F34.9°C 59.9°F15.5°C 71.9°F22.2°C
Winds 1.2 mph 1.9 kmh Calm Calm Calm SCalm S
Wind Gusts 2.3 mph3.7 kmh -- --
Humidity 99% 56% 95%
Pressure 29.45 in997.3 mb 29.36 in994.2 mb -
Precipitation 0.40 in10.2 mm - -
Hour Temp Dew Point Humidity Winds Wind Gusts Pressure Precip Precip Rate Daily Precip Total
12:00 AM 70.5°F21.4°C 70.2°F21.2°C 99% Calm Calm -- 29.38 in994.9 mb - 0.00 in0.0 mm 0.00 in0.0 mm
01:00 AM 68.4°F20.2°C 68.1°F20.1°C 99% Calm Calm -- 29.38 in994.9 mb - 0.00 in0.0 mm 0.00 in0.0 mm
02:00 AM 66.9°F19.4°C 66.3°F19.1°C 98% Calm Calm -- 29.38 in994.9 mb - 0.00 in0.0 mm 0.00 in0.0 mm
03:00 AM 65.7°F18.7°C 64.2°F17.9°C 95% Calm Calm -- 29.39 in995.3 mb - 0.00 in0.0 mm 0.00 in0.0 mm
04:00 AM 64.8°F18.2°C 64.5°F18.1°C 99% Calm Calm -- 29.40 in995.6 mb - 0.00 in0.0 mm 0.00 in0.0 mm
05:00 AM 64.2°F17.9°C 59.9°F15.5°C 86% Calm Calm -- 29.41 in995.9 mb - 0.00 in0.0 mm 0.00 in0.0 mm
06:00 AM 64.6°F18.1°C 64.3°F17.9°C 99% Calm Calm -- 29.43 in996.6 mb - 0.00 in0.0 mm 0.00 in0.0 mm
07:00 AM 66.2°F19.0°C 65.9°F18.8°C 99% Calm Calm -- 29.44 in997.0 mb - 0.00 in0.0 mm 0.00 in0.0 mm
08:00 AM 69.8°F21.0°C 66.1°F18.9°C 88% Calm Calm -- 29.43 in996.6 mb - 0.00 in0.0 mm 0.00 in0.0 mm
09:00 AM 75.0°F23.9°C 74.7°F23.7°C 99% Calm Calm -- 29.43 in996.6 mb - 0.00 in0.0 mm 0.00 in0.0 mm
10:00 AM 79.5°F26.4°C 70.5°F21.4°C 74% Calm Calm -- 29.41 in995.9 mb - 0.00 in0.0 mm 0.00 in0.0 mm
11:00 AM 83.5°F28.6°C 83.2°F28.4°C 99% Calm Calm 2.3 mph3.7 kmh 29.41 in995.9 mb - 0.00 in0.0 mm 0.00 in0.0 mm
12:00 PM 86.4°F30.2°C 86.1°F30.1°C 99% Calm Calm -- 29.43 in996.6 mb - 0.00 in0.0 mm 0.00 in0.0 mm
01:00 PM 91.7°F33.2°C 91.3°F32.9°C 99% Calm Calm -- 29.41 in995.9 mb - 0.00 in0.0 mm 0.00 in0.0 mm
02:00 PM 95.2°F35.1°C 94.9°F34.9°C 99% 1.2 mph SE1.9 kmh SE -- 29.38 in994.9 mb - 0.00 in0.0 mm 0.00 in0.0 mm
03:00 PM 93.3°F34.1°C 92.9°F33.8°C 99% Calm Calm -- 29.37 in994.6 mb - 0.00 in0.0 mm 0.00 in0.0 mm
04:00 PM 84.5°F29.2°C 84.2°F29.0°C 99% Calm Calm -- 29.38 in994.9 mb - 0.00 in0.0 mm 0.00 in0.0 mm
05:00 PM 80.4°F26.9°C 63.3°F17.4°C 56% Calm Calm -- 29.39 in995.3 mb - 0.00 in0.0 mm 0.00 in0.0 mm
06:00 PM 71.0°F21.7°C 70.7°F21.5°C 99% Calm Calm -- 29.45 in997.3 mb - 0.16 in4.1 mm 0.16 in4.1 mm
07:00 PM 67.5°F19.7°C 67.2°F19.6°C 99% Calm Calm -- 29.42 in996.3 mb - 0.18 in4.6 mm 0.34 in8.6 mm
08:00 PM 66.7°F19.3°C 66.1°F18.9°C 98% Calm Calm -- 29.36 in994.2 mb - 0.06 in1.5 mm 0.40 in10.2 mm
09:00 PM 66.6°F19.2°C 66.0°F18.9°C 98% Calm Calm -- 29.36 in994.2 mb - 0.00 in0.0 mm 0.40 in10.2 mm
10:00 PM 66.0°F18.9°C 65.7°F18.7°C 99% Calm Calm -- 29.37 in994.6 mb - 0.00 in0.0 mm 0.40 in10.2 mm
11:00 PM 65.3°F18.5°C 64.7°F18.2°C 98% Calm Calm -- 29.38 in994.9 mb - 0.00 in0.0 mm 0.40 in10.2 mm